sensor_id;sensor_type;location;lat;lon;timestamp;temperature;humidity
2647;DHT22;1333;50.958;6.770;2022-10-31T00:00:45;14.10;99.90
2647;DHT22;1333;50.958;6.770;2022-10-31T00:03:11;14.10;99.90
2647;DHT22;1333;50.958;6.770;2022-10-31T00:05:40;14.10;99.90
2647;DHT22;1333;50.958;6.770;2022-10-31T00:08:06;14.10;99.90
2647;DHT22;1333;50.958;6.770;2022-10-31T00:10:32;14.00;99.90
2647;DHT22;1333;50.958;6.770;2022-10-31T00:12:57;14.00;99.90
2647;DHT22;1333;50.958;6.770;2022-10-31T00:15:23;14.00;99.90
2647;DHT22;1333;50.958;6.770;2022-10-31T00:17:48;14.00;99.90
2647;DHT22;1333;50.958;6.770;2022-10-31T00:20:14;13.90;99.90
2647;DHT22;1333;50.958;6.770;2022-10-31T00:22:39;13.90;99.90
2647;DHT22;1333;50.958;6.770;2022-10-31T00:25:05;13.90;99.90
2647;DHT22;1333;50.958;6.770;2022-10-31T00:27:30;13.80;99.90
2647;DHT22;1333;50.958;6.770;2022-10-31T00:29:56;13.80;99.90
2647;DHT22;1333;50.958;6.770;2022-10-31T00:32:21;13.80;99.90
2647;DHT22;1333;50.958;6.770;2022-10-31T00:34:47;13.90;99.90
2647;DHT22;1333;50.958;6.770;2022-10-31T00:37:12;14.00;99.90
2647;DHT22;1333;50.958;6.770;2022-10-31T00:39:38;13.90;99.90
2647;DHT22;1333;50.958;6.770;2022-10-31T00:42:03;13.90;99.90
2647;DHT22;1333;50.958;6.770;2022-10-31T00:44:29;13.90;99.90
2647;DHT22;1333;50.958;6.770;2022-10-31T00:46:54;13.90;99.90
2647;DHT22;1333;50.958;6.770;2022-10-31T00:49:20;13.90;99.90
2647;DHT22;1333;50.958;6.770;2022-10-31T00:51:45;13.90;99.90
2647;DHT22;1333;50.958;6.770;2022-10-31T00:54:11;13.80;99.90
2647;DHT22;1333;50.958;6.770;2022-10-31T00:56:36;13.80;99.90
2647;DHT22;1333;50.958;6.770;2022-10-31T00:59:02;13.80;99.90
2647;DHT22;1333;50.958;6.770;2022-10-31T01:01:27;13.80;99.90
2647;DHT22;1333;50.958;6.770;2022-10-31T01:03:53;13.80;99.90
2647;DHT22;1333;50.958;6.770;2022-10-31T01:06:18;13.80;99.90
2647;DHT22;1333;50.958;6.770;2022-10-31T01:08:44;13.80;99.90
2647;DHT22;1333;50.958;6.770;2022-10-31T01:13:38;13.90;99.90
2647;DHT22;1333;50.958;6.770;2022-10-31T01:16:05;13.80;99.90
2647;DHT22;1333;50.958;6.770;2022-10-31T01:18:31;13.80;99.90
2647;DHT22;1333;50.958;6.770;2022-10-31T01:21:02;13.80;99.90
2647;DHT22;1333;50.958;6.770;2022-10-31T01:23:28;13.80;99.90
2647;DHT22;1333;50.958;6.770;2022-10-31T01:26:10;13.80;99.90
2647;DHT22;1333;50.958;6.770;2022-10-31T01:28:38;13.80;99.90
2647;DHT22;1333;50.958;6.770;2022-10-31T01:31:06;13.80;99.90
2647;DHT22;1333;50.958;6.770;2022-10-31T01:33:33;13.80;99.90
2647;DHT22;1333;50.958;6.770;2022-10-31T01:35:58;13.80;99.90
2647;DHT22;1333;50.958;6.770;2022-10-31T01:38:24;13.80;99.90
2647;DHT22;1333;50.958;6.770;2022-10-31T01:40:50;13.80;99.90
2647;DHT22;1333;50.958;6.770;2022-10-31T01:43:16;13.80;99.90
2647;DHT22;1333;50.958;6.770;2022-10-31T01:45:49;13.70;99.90
2647;DHT22;1333;50.958;6.770;2022-10-31T01:48:18;13.70;99.90
2647;DHT22;1333;50.958;6.770;2022-10-31T01:50:46;13.70;99.90
2647;DHT22;1333;50.958;6.770;2022-10-31T01:53:14;13.80;99.90
2647;DHT22;1333;50.958;6.770;2022-10-31T01:55:43;13.80;99.90
2647;DHT22;1333;50.958;6.770;2022-10-31T01:58:13;13.70;99.90
2647;DHT22;1333;50.958;6.770;2022-10-31T02:00:40;13.60;99.90
2647;DHT22;1333;50.958;6.770;2022-10-31T02:03:07;13.50;99.90
2647;DHT22;1333;50.958;6.770;2022-10-31T02:05:32;13.50;99.90
2647;DHT22;1333;50.958;6.770;2022-10-31T02:08:12;13.50;99.90
2647;DHT22;1333;50.958;6.770;2022-10-31T02:10:40;13.40;99.90
2647;DHT22;1333;50.958;6.770;2022-10-31T02:13:08;13.30;99.90
2647;DHT22;1333;50.958;6.770;2022-10-31T02:15:35;13.30;99.90
2647;DHT22;1333;50.958;6.770;2022-10-31T02:18:02;13.20;99.90
2647;DHT22;1333;50.958;6.770;2022-10-31T02:20:54;13.10;99.90
2647;DHT22;1333;50.958;6.770;2022-10-31T02:23:51;13.00;99.90
2647;DHT22;1333;50.958;6.770;2022-10-31T02:29:36;12.90;99.90
2647;DHT22;1333;50.958;6.770;2022-10-31T02:32:19;12.90;99.90
2647;DHT22;1333;50.958;6.770;2022-10-31T02:35:10;12.80;99.90
2647;DHT22;1333;50.958;6.770;2022-10-31T02:37:56;12.90;99.90
2647;DHT22;1333;50.958;6.770;2022-10-31T02:40:31;12.80;99.90
2647;DHT22;1333;50.958;6.770;2022-10-31T02:43:11;12.80;99.90
2647;DHT22;1333;50.958;6.770;2022-10-31T02:45:54;12.80;99.90
2647;DHT22;1333;50.958;6.770;2022-10-31T02:48:28;12.80;99.90
2647;DHT22;1333;50.958;6.770;2022-10-31T02:50:59;12.90;99.90
2647;DHT22;1333;50.958;6.770;2022-10-31T02:53:26;12.90;99.90
2647;DHT22;1333;50.958;6.770;2022-10-31T02:55:56;12.80;99.90
2647;DHT22;1333;50.958;6.770;2022-10-31T02:58:25;12.80;99.90
2647;DHT22;1333;50.958;6.770;2022-10-31T03:01:01;12.90;99.90
2647;DHT22;1333;50.958;6.770;2022-10-31T03:06:17;12.70;99.90
2647;DHT22;1333;50.958;6.770;2022-10-31T03:09:04;12.70;99.90
2647;DHT22;1333;50.958;6.770;2022-10-31T03:11:46;12.70;99.90
2647;DHT22;1333;50.958;6.770;2022-10-31T03:14:23;12.60;99.90
2647;DHT22;1333;50.958;6.770;2022-10-31T03:16:50;12.60;99.90
2647;DHT22;1333;50.958;6.770;2022-10-31T03:19:25;12.60;99.90
2647;DHT22;1333;50.958;6.770;2022-10-31T03:22:02;12.60;99.90
2647;DHT22;1333;50.958;6.770;2022-10-31T03:24:32;12.60;99.90
2647;DHT22;1333;50.958;6.770;2022-10-31T03:27:00;12.60;99.90
2647;DHT22;1333;50.958;6.770;2022-10-31T03:29:29;12.60;99.90
2647;DHT22;1333;50.958;6.770;2022-10-31T03:34:31;12.60;99.90
2647;DHT22;1333;50.958;6.770;2022-10-31T03:37:02;12.70;99.90
2647;DHT22;1333;50.958;6.770;2022-10-31T03:39:29;12.70;99.90
2647;DHT22;1333;50.958;6.770;2022-10-31T03:42:07;12.70;99.90
2647;DHT22;1333;50.958;6.770;2022-10-31T03:44:35;12.70;99.90
2647;DHT22;1333;50.958;6.770;2022-10-31T03:47:03;12.80;99.90
2647;DHT22;1333;50.958;6.770;2022-10-31T03:49:30;12.80;99.90
2647;DHT22;1333;50.958;6.770;2022-10-31T03:55:16;12.80;99.90
2647;DHT22;1333;50.958;6.770;2022-10-31T03:57:53;12.80;99.90
2647;DHT22;1333;50.958;6.770;2022-10-31T04:00:20;12.80;99.90
2647;DHT22;1333;50.958;6.770;2022-10-31T04:02:52;12.80;99.90
2647;DHT22;1333;50.958;6.770;2022-10-31T04:05:20;12.80;99.90
2647;DHT22;1333;50.958;6.770;2022-10-31T04:07:47;12.80;99.90
2647;DHT22;1333;50.958;6.770;2022-10-31T04:10:15;12.70;99.90
2647;DHT22;1333;50.958;6.770;2022-10-31T04:12:43;12.60;99.90
2647;DHT22;1333;50.958;6.770;2022-10-31T04:15:11;12.60;99.90
2647;DHT22;1333;50.958;6.770;2022-10-31T04:17:39;12.60;99.90
2647;DHT22;1333;50.958;6.770;2022-10-31T04:20:06;12.60;99.90
2647;DHT22;1333;50.958;6.770;2022-10-31T04:22:32;12.60;99.90
2647;DHT22;1333;50.958;6.770;2022-10-31T04:24:57;12.60;99.90
2647;DHT22;1333;50.958;6.770;2022-10-31T04:27:23;12.60;99.90
2647;DHT22;1333;50.958;6.770;2022-10-31T04:29:48;12.60;99.90
2647;DHT22;1333;50.958;6.770;2022-10-31T04:32:14;12.60;99.90
2647;DHT22;1333;50.958;6.770;2022-10-31T04:34:39;12.70;99.90
2647;DHT22;1333;50.958;6.770;2022-10-31T04:37:05;12.80;99.90
2647;DHT22;1333;50.958;6.770;2022-10-31T04:39:30;12.80;99.90
2647;DHT22;1333;50.958;6.770;2022-10-31T04:41:56;12.80;99.90
2647;DHT22;1333;50.958;6.770;2022-10-31T04:44:21;12.80;99.90
2647;DHT22;1333;50.958;6.770;2022-10-31T04:46:47;12.80;99.90
2647;DHT22;1333;50.958;6.770;2022-10-31T04:49:13;12.80;99.90
2647;DHT22;1333;50.958;6.770;2022-10-31T04:51:38;12.80;99.90
2647;DHT22;1333;50.958;6.770;2022-10-31T04:54:04;12.70;99.90
2647;DHT22;1333;50.958;6.770;2022-10-31T04:56:29;12.70;99.90
2647;DHT22;1333;50.958;6.770;2022-10-31T04:58:55;12.70;99.90
2647;DHT22;1333;50.958;6.770;2022-10-31T05:01:20;12.80;99.90
2647;DHT22;1333;50.958;6.770;2022-10-31T05:03:46;12.70;99.90
2647;DHT22;1333;50.958;6.770;2022-10-31T05:06:11;12.60;99.90
2647;DHT22;1333;50.958;6.770;2022-10-31T05:08:37;12.60;99.90
2647;DHT22;1333;50.958;6.770;2022-10-31T05:11:03;12.50;99.90
2647;DHT22;1333;50.958;6.770;2022-10-31T05:13:29;12.40;99.90
2647;DHT22;1333;50.958;6.770;2022-10-31T05:15:55;12.40;99.90
2647;DHT22;1333;50.958;6.770;2022-10-31T05:18:20;12.30;99.90
2647;DHT22;1333;50.958;6.770;2022-10-31T05:20:46;12.20;99.90
2647;DHT22;1333;50.958;6.770;2022-10-31T05:23:12;12.20;99.90
2647;DHT22;1333;50.958;6.770;2022-10-31T05:25:39;12.20;99.90
2647;DHT22;1333;50.958;6.770;2022-10-31T05:28:04;12.10;99.90
2647;DHT22;1333;50.958;6.770;2022-10-31T05:30:31;12.10;99.90
2647;DHT22;1333;50.958;6.770;2022-10-31T05:32:57;12.10;99.90
2647;DHT22;1333;50.958;6.770;2022-10-31T05:35:28;12.10;99.90
2647;DHT22;1333;50.958;6.770;2022-10-31T05:37:54;12.10;99.90
2647;DHT22;1333;50.958;6.770;2022-10-31T05:40:20;12.00;99.90
2647;DHT22;1333;50.958;6.770;2022-10-31T05:42:47;12.00;99.90
2647;DHT22;1333;50.958;6.770;2022-10-31T05:45:16;11.90;99.90
2647;DHT22;1333;50.958;6.770;2022-10-31T05:47:49;11.90;99.90
2647;DHT22;1333;50.958;6.770;2022-10-31T05:50:15;11.90;99.90
2647;DHT22;1333;50.958;6.770;2022-10-31T05:52:40;11.90;99.90
2647;DHT22;1333;50.958;6.770;2022-10-31T05:55:06;11.90;99.90
2647;DHT22;1333;50.958;6.770;2022-10-31T05:57:32;11.90;99.90
2647;DHT22;1333;50.958;6.770;2022-10-31T05:59:58;11.80;99.90
2647;DHT22;1333;50.958;6.770;2022-10-31T06:02:24;11.80;99.90
2647;DHT22;1333;50.958;6.770;2022-10-31T06:04:50;11.80;99.90
2647;DHT22;1333;50.958;6.770;2022-10-31T06:07:15;11.80;99.90
2647;DHT22;1333;50.958;6.770;2022-10-31T06:09:41;11.80;99.90
2647;DHT22;1333;50.958;6.770;2022-10-31T06:12:06;11.90;99.90
2647;DHT22;1333;50.958;6.770;2022-10-31T06:14:32;12.00;99.90
2647;DHT22;1333;50.958;6.770;2022-10-31T06:16:57;12.00;99.90
2647;DHT22;1333;50.958;6.770;2022-10-31T06:19:23;11.90;99.90
2647;DHT22;1333;50.958;6.770;2022-10-31T06:21:48;11.90;99.90
2647;DHT22;1333;50.958;6.770;2022-10-31T06:24:14;11.90;99.90
2647;DHT22;1333;50.958;6.770;2022-10-31T06:26:40;11.90;99.90
2647;DHT22;1333;50.958;6.770;2022-10-31T06:29:06;11.80;99.90
2647;DHT22;1333;50.958;6.770;2022-10-31T06:31:31;11.70;99.90
2647;DHT22;1333;50.958;6.770;2022-10-31T06:33:57;11.70;99.90
2647;DHT22;1333;50.958;6.770;2022-10-31T06:36:22;11.70;99.90
2647;DHT22;1333;50.958;6.770;2022-10-31T06:38:48;11.80;99.90
2647;DHT22;1333;50.958;6.770;2022-10-31T06:41:13;11.70;99.90
2647;DHT22;1333;50.958;6.770;2022-10-31T06:43:39;11.70;99.90
2647;DHT22;1333;50.958;6.770;2022-10-31T06:46:05;11.70;99.90
2647;DHT22;1333;50.958;6.770;2022-10-31T06:48:31;11.70;99.90
2647;DHT22;1333;50.958;6.770;2022-10-31T06:51:01;11.80;99.90
2647;DHT22;1333;50.958;6.770;2022-10-31T06:53:28;11.80;99.90
2647;DHT22;1333;50.958;6.770;2022-10-31T06:55:55;11.90;99.90
2647;DHT22;1333;50.958;6.770;2022-10-31T06:58:21;12.00;99.90
2647;DHT22;1333;50.958;6.770;2022-10-31T07:00:46;12.10;99.90
2647;DHT22;1333;50.958;6.770;2022-10-31T07:03:13;12.20;99.90
2647;DHT22;1333;50.958;6.770;2022-10-31T07:05:40;12.20;99.90
2647;DHT22;1333;50.958;6.770;2022-10-31T07:08:08;12.20;99.90
2647;DHT22;1333;50.958;6.770;2022-10-31T07:10:35;12.30;99.90
2647;DHT22;1333;50.958;6.770;2022-10-31T07:13:03;12.40;99.90
2647;DHT22;1333;50.958;6.770;2022-10-31T07:15:33;12.40;99.90
2647;DHT22;1333;50.958;6.770;2022-10-31T07:18:00;12.50;99.90
2647;DHT22;1333;50.958;6.770;2022-10-31T07:20:30;12.60;99.90
2647;DHT22;1333;50.958;6.770;2022-10-31T07:22:56;12.80;99.90
2647;DHT22;1333;50.958;6.770;2022-10-31T07:25:22;12.80;99.90
2647;DHT22;1333;50.958;6.770;2022-10-31T07:27:48;12.90;99.90
2647;DHT22;1333;50.958;6.770;2022-10-31T07:30:14;13.00;99.90
2647;DHT22;1333;50.958;6.770;2022-10-31T07:32:48;13.00;99.90
2647;DHT22;1333;50.958;6.770;2022-10-31T07:35:19;13.20;99.90
2647;DHT22;1333;50.958;6.770;2022-10-31T07:37:45;13.20;99.90
2647;DHT22;1333;50.958;6.770;2022-10-31T07:40:11;13.20;99.90
2647;DHT22;1333;50.958;6.770;2022-10-31T07:42:38;13.30;99.90
2647;DHT22;1333;50.958;6.770;2022-10-31T07:45:05;13.20;99.90
2647;DHT22;1333;50.958;6.770;2022-10-31T07:47:38;13.30;99.90
2647;DHT22;1333;50.958;6.770;2022-10-31T07:50:04;13.30;99.90
2647;DHT22;1333;50.958;6.770;2022-10-31T07:52:30;13.30;99.90
2647;DHT22;1333;50.958;6.770;2022-10-31T07:54:55;13.40;99.90
2647;DHT22;1333;50.958;6.770;2022-10-31T07:57:21;13.40;99.90
2647;DHT22;1333;50.958;6.770;2022-10-31T07:59:46;13.40;99.90
2647;DHT22;1333;50.958;6.770;2022-10-31T08:02:12;13.50;99.90
2647;DHT22;1333;50.958;6.770;2022-10-31T08:04:37;13.60;99.90
2647;DHT22;1333;50.958;6.770;2022-10-31T08:07:03;13.80;99.90
2647;DHT22;1333;50.958;6.770;2022-10-31T08:09:28;13.80;99.90
2647;DHT22;1333;50.958;6.770;2022-10-31T08:11:54;13.80;99.90
2647;DHT22;1333;50.958;6.770;2022-10-31T08:14:19;14.00;99.90
2647;DHT22;1333;50.958;6.770;2022-10-31T08:16:45;13.90;99.90
2647;DHT22;1333;50.958;6.770;2022-10-31T08:19:10;14.00;99.90
2647;DHT22;1333;50.958;6.770;2022-10-31T08:21:36;14.20;99.90
2647;DHT22;1333;50.958;6.770;2022-10-31T08:24:01;14.30;99.90
2647;DHT22;1333;50.958;6.770;2022-10-31T08:26:27;14.30;99.90
2647;DHT22;1333;50.958;6.770;2022-10-31T08:28:52;14.40;99.90
2647;DHT22;1333;50.958;6.770;2022-10-31T08:31:20;14.40;99.90
2647;DHT22;1333;50.958;6.770;2022-10-31T08:33:45;14.30;99.90
2647;DHT22;1333;50.958;6.770;2022-10-31T08:36:11;14.30;99.90
2647;DHT22;1333;50.958;6.770;2022-10-31T08:38:36;14.30;99.90
2647;DHT22;1333;50.958;6.770;2022-10-31T08:41:02;14.20;99.90
2647;DHT22;1333;50.958;6.770;2022-10-31T08:43:27;14.30;99.90
2647;DHT22;1333;50.958;6.770;2022-10-31T08:45:53;14.30;99.90
2647;DHT22;1333;50.958;6.770;2022-10-31T08:48:20;14.30;99.90
2647;DHT22;1333;50.958;6.770;2022-10-31T08:50:46;14.30;99.90
2647;DHT22;1333;50.958;6.770;2022-10-31T08:53:13;14.40;99.90
2647;DHT22;1333;50.958;6.770;2022-10-31T08:55:40;14.40;99.90
2647;DHT22;1333;50.958;6.770;2022-10-31T08:58:10;14.60;99.90
2647;DHT22;1333;50.958;6.770;2022-10-31T09:00:37;14.60;99.90
2647;DHT22;1333;50.958;6.770;2022-10-31T09:03:09;14.50;99.90
2647;DHT22;1333;50.958;6.770;2022-10-31T09:05:35;14.60;99.90
2647;DHT22;1333;50.958;6.770;2022-10-31T09:08:02;14.70;99.90
2647;DHT22;1333;50.958;6.770;2022-10-31T09:10:29;14.80;99.90
2647;DHT22;1333;50.958;6.770;2022-10-31T09:13:07;14.90;99.90
2647;DHT22;1333;50.958;6.770;2022-10-31T09:15:36;15.10;99.90
2647;DHT22;1333;50.958;6.770;2022-10-31T09:18:03;15.00;99.90
2647;DHT22;1333;50.958;6.770;2022-10-31T09:20:31;15.20;99.90
2647;DHT22;1333;50.958;6.770;2022-10-31T09:22:59;15.50;99.90
2647;DHT22;1333;50.958;6.770;2022-10-31T09:25:25;15.80;99.90
2647;DHT22;1333;50.958;6.770;2022-10-31T09:27:54;15.90;99.90
2647;DHT22;1333;50.958;6.770;2022-10-31T09:30:20;16.40;99.90
2647;DHT22;1333;50.958;6.770;2022-10-31T09:32:45;16.90;99.90
2647;DHT22;1333;50.958;6.770;2022-10-31T09:35:11;17.00;99.90
2647;DHT22;1333;50.958;6.770;2022-10-31T09:37:36;17.30;99.90
2647;DHT22;1333;50.958;6.770;2022-10-31T09:40:03;17.50;99.90
2647;DHT22;1333;50.958;6.770;2022-10-31T09:45:13;17.70;99.90
2647;DHT22;1333;50.958;6.770;2022-10-31T09:51:10;18.40;99.90
2647;DHT22;1333;50.958;6.770;2022-10-31T09:54:03;19.00;99.90
2647;DHT22;1333;50.958;6.770;2022-10-31T09:56:31;19.70;99.90
2647;DHT22;1333;50.958;6.770;2022-10-31T09:58:59;20.60;99.90
2647;DHT22;1333;50.958;6.770;2022-10-31T10:01:46;21.30;99.90
2647;DHT22;1333;50.958;6.770;2022-10-31T10:04:31;22.20;99.90
2647;DHT22;1333;50.958;6.770;2022-10-31T10:06:59;23.10;99.90
2647;DHT22;1333;50.958;6.770;2022-10-31T10:09:26;23.10;99.90
2647;DHT22;1333;50.958;6.770;2022-10-31T10:12:08;23.70;99.90
2647;DHT22;1333;50.958;6.770;2022-10-31T10:25:15;22.60;99.90
2647;DHT22;1333;50.958;6.770;2022-10-31T10:27:53;22.30;99.90
2647;DHT22;1333;50.958;6.770;2022-10-31T10:32:51;21.20;99.90
2647;DHT22;1333;50.958;6.770;2022-10-31T10:35:30;20.90;99.90
2647;DHT22;1333;50.958;6.770;2022-10-31T10:38:09;20.60;99.90
2647;DHT22;1333;50.958;6.770;2022-10-31T10:40:35;20.30;99.90
2647;DHT22;1333;50.958;6.770;2022-10-31T10:43:20;20.60;99.90
2647;DHT22;1333;50.958;6.770;2022-10-31T10:48:43;21.20;99.90
2647;DHT22;1333;50.958;6.770;2022-10-31T10:51:50;21.30;99.90
2647;DHT22;1333;50.958;6.770;2022-10-31T10:57:40;21.70;99.90
2647;DHT22;1333;50.958;6.770;2022-10-31T10:59:45;22.00;99.90
2647;DHT22;1333;50.958;6.770;2022-10-31T11:02:18;22.30;99.90
2647;DHT22;1333;50.958;6.770;2022-10-31T11:04:47;22.50;99.90
2647;DHT22;1333;50.958;6.770;2022-10-31T11:07:14;22.90;99.90
2647;DHT22;1333;50.958;6.770;2022-10-31T11:09:40;22.80;99.90
2647;DHT22;1333;50.958;6.770;2022-10-31T11:14:55;22.60;99.90
2647;DHT22;1333;50.958;6.770;2022-10-31T11:17:29;22.50;99.90
2647;DHT22;1333;50.958;6.770;2022-10-31T11:22:33;22.00;99.90
2647;DHT22;1333;50.958;6.770;2022-10-31T11:24:59;22.20;99.90
2647;DHT22;1333;50.958;6.770;2022-10-31T11:27:25;22.90;99.90
2647;DHT22;1333;50.958;6.770;2022-10-31T11:29:51;23.30;99.90
2647;DHT22;1333;50.958;6.770;2022-10-31T11:32:22;23.50;99.90
2647;DHT22;1333;50.958;6.770;2022-10-31T11:34:58;24.00;99.90
2647;DHT22;1333;50.958;6.770;2022-10-31T11:37:30;24.20;99.90
2647;DHT22;1333;50.958;6.770;2022-10-31T11:39:59;24.30;99.90
2647;DHT22;1333;50.958;6.770;2022-10-31T11:42:28;24.40;99.90
2647;DHT22;1333;50.958;6.770;2022-10-31T11:44:55;24.60;99.90
2647;DHT22;1333;50.958;6.770;2022-10-31T11:47:26;25.00;99.90
2647;DHT22;1333;50.958;6.770;2022-10-31T11:49:52;24.80;99.90
2647;DHT22;1333;50.958;6.770;2022-10-31T11:52:27;24.40;99.90
2647;DHT22;1333;50.958;6.770;2022-10-31T11:57:45;23.50;99.90
2647;DHT22;1333;50.958;6.770;2022-10-31T12:00:28;23.30;99.90
2647;DHT22;1333;50.958;6.770;2022-10-31T12:03:12;22.80;99.90
2647;DHT22;1333;50.958;6.770;2022-10-31T12:05:39;22.60;99.90
2647;DHT22;1333;50.958;6.770;2022-10-31T12:08:11;22.60;99.90
2647;DHT22;1333;50.958;6.770;2022-10-31T12:13:27;22.00;99.90
2647;DHT22;1333;50.958;6.770;2022-10-31T12:16:25;22.00;99.90
2647;DHT22;1333;50.958;6.770;2022-10-31T12:19:03;21.80;99.90
2647;DHT22;1333;50.958;6.770;2022-10-31T12:27:15;20.80;99.90
2647;DHT22;1333;50.958;6.770;2022-10-31T12:46:06;20.50;99.90
2647;DHT22;1333;50.958;6.770;2022-10-31T12:48:54;20.40;99.90
2647;DHT22;1333;50.958;6.770;2022-10-31T12:59:39;19.70;99.90
2647;DHT22;1333;50.958;6.770;2022-10-31T13:04:54;19.80;99.90
2647;DHT22;1333;50.958;6.770;2022-10-31T13:07:28;19.80;99.90
2647;DHT22;1333;50.958;6.770;2022-10-31T13:10:03;19.80;99.90
2647;DHT22;1333;50.958;6.770;2022-10-31T13:12:33;19.70;99.90
2647;DHT22;1333;50.958;6.770;2022-10-31T13:15:05;19.60;99.90
2647;DHT22;1333;50.958;6.770;2022-10-31T13:17:37;19.60;99.90
2647;DHT22;1333;50.958;6.770;2022-10-31T13:20:41;19.40;99.90
2647;DHT22;1333;50.958;6.770;2022-10-31T13:23:10;19.30;99.90
2647;DHT22;1333;50.958;6.770;2022-10-31T13:25:40;19.10;99.90
2647;DHT22;1333;50.958;6.770;2022-10-31T13:30:59;19.10;99.90
2647;DHT22;1333;50.958;6.770;2022-10-31T13:33:29;19.10;99.90
2647;DHT22;1333;50.958;6.770;2022-10-31T13:36:29;19.10;99.90
2647;DHT22;1333;50.958;6.770;2022-10-31T13:39:30;19.10;99.90
2647;DHT22;1333;50.958;6.770;2022-10-31T13:44:35;19.20;99.90
2647;DHT22;1333;50.958;6.770;2022-10-31T13:47:24;19.20;99.90
2647;DHT22;1333;50.958;6.770;2022-10-31T13:49:50;19.20;99.90
2647;DHT22;1333;50.958;6.770;2022-10-31T13:52:23;19.20;99.90
2647;DHT22;1333;50.958;6.770;2022-10-31T13:54:51;19.10;99.90
2647;DHT22;1333;50.958;6.770;2022-10-31T14:00:01;19.00;99.90
2647;DHT22;1333;50.958;6.770;2022-10-31T14:02:35;18.90;99.90
2647;DHT22;1333;50.958;6.770;2022-10-31T14:07:52;18.80;99.90
2647;DHT22;1333;50.958;6.770;2022-10-31T14:10:25;18.90;99.90
2647;DHT22;1333;50.958;6.770;2022-10-31T14:12:54;18.80;99.90
2647;DHT22;1333;50.958;6.770;2022-10-31T14:15:28;18.80;99.90
2647;DHT22;1333;50.958;6.770;2022-10-31T14:17:58;18.70;99.90
2647;DHT22;1333;50.958;6.770;2022-10-31T14:22:54;18.70;99.90
2647;DHT22;1333;50.958;6.770;2022-10-31T14:25:29;18.70;99.90
2647;DHT22;1333;50.958;6.770;2022-10-31T14:27:55;18.60;99.90
2647;DHT22;1333;50.958;6.770;2022-10-31T14:30:24;18.60;99.90
2647;DHT22;1333;50.958;6.770;2022-10-31T14:33:12;18.50;99.90
2647;DHT22;1333;50.958;6.770;2022-10-31T14:38:57;18.50;99.90
2647;DHT22;1333;50.958;6.770;2022-10-31T14:41:55;18.40;99.90
2647;DHT22;1333;50.958;6.770;2022-10-31T14:47:39;18.30;99.90
2647;DHT22;1333;50.958;6.770;2022-10-31T14:53:04;18.40;99.90
2647;DHT22;1333;50.958;6.770;2022-10-31T14:55:31;18.40;99.90
2647;DHT22;1333;50.958;6.770;2022-10-31T14:58:06;18.50;99.90
2647;DHT22;1333;50.958;6.770;2022-10-31T15:00:33;18.50;99.90
2647;DHT22;1333;50.958;6.770;2022-10-31T15:03:16;18.60;99.90
2647;DHT22;1333;50.958;6.770;2022-10-31T15:05:56;18.60;99.90
2647;DHT22;1333;50.958;6.770;2022-10-31T15:08:31;18.70;99.90
2647;DHT22;1333;50.958;6.770;2022-10-31T15:10:57;18.60;99.90
2647;DHT22;1333;50.958;6.770;2022-10-31T15:13:23;18.60;99.90
2647;DHT22;1333;50.958;6.770;2022-10-31T15:15:54;18.60;99.90
2647;DHT22;1333;50.958;6.770;2022-10-31T15:18:25;18.50;99.90
2647;DHT22;1333;50.958;6.770;2022-10-31T15:20:52;18.50;99.90
2647;DHT22;1333;50.958;6.770;2022-10-31T15:23:25;18.60;99.90
2647;DHT22;1333;50.958;6.770;2022-10-31T15:25:59;18.60;99.90
2647;DHT22;1333;50.958;6.770;2022-10-31T15:28:25;18.60;99.90
2647;DHT22;1333;50.958;6.770;2022-10-31T15:30:56;18.60;99.90
2647;DHT22;1333;50.958;6.770;2022-10-31T15:33:31;18.50;99.90
2647;DHT22;1333;50.958;6.770;2022-10-31T15:35:59;18.40;99.90
2647;DHT22;1333;50.958;6.770;2022-10-31T15:38:25;18.30;99.90
2647;DHT22;1333;50.958;6.770;2022-10-31T15:41:01;18.30;99.90
2647;DHT22;1333;50.958;6.770;2022-10-31T15:43:32;18.20;99.90
2647;DHT22;1333;50.958;6.770;2022-10-31T15:45:59;18.20;99.90
2647;DHT22;1333;50.958;6.770;2022-10-31T15:48:25;18.20;99.90
2647;DHT22;1333;50.958;6.770;2022-10-31T15:50:54;18.10;99.90
2647;DHT22;1333;50.958;6.770;2022-10-31T15:53:50;18.10;99.90
2647;DHT22;1333;50.958;6.770;2022-10-31T15:56:26;18.00;99.90
2647;DHT22;1333;50.958;6.770;2022-10-31T15:58:54;17.90;99.90
2647;DHT22;1333;50.958;6.770;2022-10-31T16:01:27;17.80;99.90
2647;DHT22;1333;50.958;6.770;2022-10-31T16:04:26;17.70;99.90
2647;DHT22;1333;50.958;6.770;2022-10-31T16:07:00;17.60;99.90
2647;DHT22;1333;50.958;6.770;2022-10-31T16:09:26;17.60;99.90
2647;DHT22;1333;50.958;6.770;2022-10-31T16:11:52;17.40;99.90
2647;DHT22;1333;50.958;6.770;2022-10-31T16:14:22;17.40;99.90
2647;DHT22;1333;50.958;6.770;2022-10-31T16:16:51;17.30;99.90
2647;DHT22;1333;50.958;6.770;2022-10-31T16:22:08;17.20;99.90
2647;DHT22;1333;50.958;6.770;2022-10-31T16:24:46;17.20;99.90
2647;DHT22;1333;50.958;6.770;2022-10-31T16:27:21;17.10;99.90
2647;DHT22;1333;50.958;6.770;2022-10-31T16:29:50;17.10;99.90
2647;DHT22;1333;50.958;6.770;2022-10-31T16:37:25;17.00;99.90
2647;DHT22;1333;50.958;6.770;2022-10-31T16:39:51;17.00;99.90
2647;DHT22;1333;50.958;6.770;2022-10-31T16:42:17;17.10;99.90
2647;DHT22;1333;50.958;6.770;2022-10-31T16:44:44;17.00;99.90
2647;DHT22;1333;50.958;6.770;2022-10-31T16:47:15;17.00;99.90
2647;DHT22;1333;50.958;6.770;2022-10-31T16:49:42;17.00;99.90
2647;DHT22;1333;50.958;6.770;2022-10-31T16:52:08;17.00;99.90
2647;DHT22;1333;50.958;6.770;2022-10-31T16:54:33;17.00;99.90
2647;DHT22;1333;50.958;6.770;2022-10-31T16:57:00;17.00;99.90
2647;DHT22;1333;50.958;6.770;2022-10-31T16:59:27;17.00;99.90
2647;DHT22;1333;50.958;6.770;2022-10-31T17:01:54;17.00;99.90
2647;DHT22;1333;50.958;6.770;2022-10-31T17:04:20;17.00;99.90
2647;DHT22;1333;50.958;6.770;2022-10-31T17:06:46;17.00;99.90
2647;DHT22;1333;50.958;6.770;2022-10-31T17:09:12;17.00;99.90
2647;DHT22;1333;50.958;6.770;2022-10-31T17:11:41;16.90;99.90
2647;DHT22;1333;50.958;6.770;2022-10-31T17:14:09;16.80;99.90
2647;DHT22;1333;50.958;6.770;2022-10-31T17:16:36;16.80;99.90
2647;DHT22;1333;50.958;6.770;2022-10-31T17:19:01;16.70;99.90
2647;DHT22;1333;50.958;6.770;2022-10-31T17:21:27;16.60;99.90
2647;DHT22;1333;50.958;6.770;2022-10-31T17:23:53;16.60;99.90
2647;DHT22;1333;50.958;6.770;2022-10-31T17:26:19;16.50;99.90
2647;DHT22;1333;50.958;6.770;2022-10-31T17:28:44;16.50;99.90
2647;DHT22;1333;50.958;6.770;2022-10-31T17:31:31;16.50;99.90
2647;DHT22;1333;50.958;6.770;2022-10-31T17:33:58;16.50;99.90
2647;DHT22;1333;50.958;6.770;2022-10-31T17:36:24;16.60;99.90
2647;DHT22;1333;50.958;6.770;2022-10-31T17:38:49;16.60;99.90
2647;DHT22;1333;50.958;6.770;2022-10-31T17:41:15;16.50;99.90
2647;DHT22;1333;50.958;6.770;2022-10-31T17:43:40;16.60;99.90
2647;DHT22;1333;50.958;6.770;2022-10-31T17:46:06;16.50;99.90
2647;DHT22;1333;50.958;6.770;2022-10-31T17:48:34;16.60;99.90
2647;DHT22;1333;50.958;6.770;2022-10-31T17:51:04;16.50;99.90
2647;DHT22;1333;50.958;6.770;2022-10-31T17:53:32;16.60;99.90
2647;DHT22;1333;50.958;6.770;2022-10-31T17:56:04;16.50;99.90
2647;DHT22;1333;50.958;6.770;2022-10-31T17:58:31;16.50;99.90
2647;DHT22;1333;50.958;6.770;2022-10-31T18:00:57;16.50;99.90
2647;DHT22;1333;50.958;6.770;2022-10-31T18:03:23;16.50;99.90
2647;DHT22;1333;50.958;6.770;2022-10-31T18:05:54;16.40;99.90
2647;DHT22;1333;50.958;6.770;2022-10-31T18:08:24;16.40;99.90
2647;DHT22;1333;50.958;6.770;2022-10-31T18:10:49;16.30;99.90